首页
METAR-TAF:

METAR-TAF

机场 :

黃刀鎮, 西北特區, 加拿大

纬度: 62-28N, 经度: 114-27W, 海拔: 205米

当前天气观测

该预报发布于14分钟前的00:00 UTC
风速8节,风向南转西南
温度 20°C
湿度 56%
气压 1006 hPa
能見度: 24.1公里
少量云层高于20000英尺

METAR: CYZF 170000Z 20008KT 15SM FEW200 20/11 A2970 RMK CI1 SLP066 DENSITY ALT 1700FT

时间: 18:14 (00:14 UTC)

预报

该预报发布于36分钟前的23:38 UTC
预报有效从17日的 00点(UTC)到 17日的 24点(UTC)
风速12节,风向南转西南
能見度: 10公里
少量云层高于4000英尺
少量云层高于20000英尺
成为
从 17日的 00点(UTC)到 17日的 02点(UTC)
风速8节,风向西
成为
从 17日的 04点(UTC)到 17日的 06点(UTC)
风速3节,风向多变
从 17日的 0600点(UTC)
风速3节,风向多变
能見度: 10公里
天空无云
从 17日的 1500点(UTC)
风速5节,风向南转南东
能見度: 10公里
少量云层高于8000英尺
散云层高于24000英尺
成为
从 17日的 16点(UTC)到 17日的 18点(UTC)
风速10节,风向南转西南
从 17日的 2100点(UTC)
风速10节,风向南转西南
能見度: 10公里
散云层高于8000英尺
散云层高于24000英尺

TAF: CYZF 162338Z 1700/1724 20012KT P6SM FEW040 FEW200 BECMG 1700/1702 28008KT BECMG 1704/1706 VRB03KT FM170600 VRB03KT P6SM SKC FM171500 16005KT P6SM FEW080 SCT240 BECMG 1716/1718 20010KT FM172100 20010KT P6SM SCT080 SCT240 RMK NXT FCST BY 170600Z

超过4000个机场的气象观测和天气预报(METAR&TAF报告)。

可查询的气象台以黄色和红色小点在地图上表示。

将鼠标移到小点上方,可查看气象台名称。

然后点击查看天气观测和预报。

如需切换地图:点击带黑十字的绿色按钮放大地图;点击带横线的绿色按钮缩小地图;或者点击绿色箭头查看邻近地区的地图。


METAR-TAF: